Aviation Digital Data Service (ADDS)

Output produced by METARs form (0343 UTC 23 November 2017)
found at http://www.aviationweather.gov/adds/metars/
 
UATE 230330Z 33003MPS CAVOK 04/02 Q1013 R30/0///70 NOSIG RMK QFE758/1011
TAF UATE 222306Z 2300/2324 35005MPS 9999 SCT015 BKN030CB TX10/2309Z TN05/2302Z
       
UATT 230330Z 11004MPS CAVOK 00/M05 Q1009 R13/0///60 NOSIG RMK QFE737/0983
TAF UATT 222300Z 2300/2324 12005MPS 9999 BKN020 TX04/2311Z TNM02/2323Z 
     TEMPO 2300/2307 13010MPS 3000 BR BKN010 
     TEMPO 2316/2324 3000 BR SCT005 BKN010
       
UAAA 230330Z VRB01MPS 2500 BR FU NSC M02/M06 Q1019 R05L/CLRD65 NOSIG
TAF UAAA 222300Z 2300/2324 16004MPS 3000 BR FU SCT030 BKN100 TX08/2309Z TNM07/2301Z 
     TEMPO 2300/2305 0500 FZFG SCT003 
     BECMG 2305/2306 04005MPS 5000 
     BECMG 2311/2312 15004MPS 2000 
     TEMPO 2312/2324 0800 FZFG
       
UAAA 230330Z VRB01MPS 2500 BR FU NSC M02/M06 Q1019 R05L/CLRD65 NOSIG
TAF UAAA 222300Z 2300/2324 16004MPS 3000 BR FU SCT030 BKN100 TX08/2309Z TNM07/2301Z 
     TEMPO 2300/2305 0500 FZFG SCT003 
     BECMG 2305/2306 04005MPS 5000 
     BECMG 2311/2312 15004MPS 2000 
     TEMPO 2312/2324 0800 FZFG
       
UAAH 230330Z 06007MPS CAVOK M03/M12 Q1023 R05/0///60 NOSIG RMK QFE730/0973
TAF UAAH 230242Z 2303/2312 08009MPS CAVOK
       
UACC 230330Z 07003MPS CAVOK M10/M12 Q1025 R04/0///70 NOSIG RMK QFE737/0983
TAF UACC 222300Z 2300/2324 09006MPS 9999 SCT020 BKN100 TX01/2309Z TNM10/2301Z 
     TEMPO 2302/2312 12006MPS
       
UACK 230330Z 17004MPS CAVOK M04/M08 Q1025 R20/010060 NOSIG RMK QFE745/0993
TAF UACK 230200Z 2303/2312 20005MPS 9999 SCT040 BKN100 
     TEMPO 2303/2312 15007MPS
       
UACP 230330Z 10004MPS CAVOK M07/M08 Q1024 R05/0/0060 NOSIG RMK QFE756/1008
TAF UACP 230326Z 2304/2312 12005MPS 9999 SCT030 
     TEMPO 2304/2312 16005MPS SCT011
       
UADD 230330Z 21002MPS 9999 NSC 00/M03 Q1014 R13/0///65 NOSIG RMK QFE704/0939
TAF UADD 230200Z 2303/2312 18005MPS 5000 BR SCT100
       
UAII 230330Z 15003MPS CAVOK 05/M06 Q1013 R28/0///70 NOSIG RMK QFE723/0964
TAF UAII 222300Z 2300/2324 12005MPS 6000 SCT100 TX20/2309Z TNM00/2301Z 
     TEMPO 2300/2304 16004MPS 3000 FU BR 
     TEMPO 2305/2313 30005MPS 
     TEMPO 2313/2324 16005MPS 3000 FU SCT040 BKN100
       
UAKD 230330Z 05005MPS 7000 NSC M06/M10 Q1020 R04/0///65 NOSIG RMK QFE732/0976
TAF UAKD 230200Z 2303/2312 07007MPS 9999 SCT020 BKN100 
     TEMPO 2303/2309 11010MPS
       
UAKK 230330Z 09003MPS CAVOK M13/M15 Q1025 R05/850550 NOSIG RMK QFE721/0961
TAF UAKK 222300Z 2300/2324 VRB02MPS 9999 NSC TX01/2309Z TNM12/2323Z 
     TEMPO 2303/2312 14006MPS
       
UAOO 230330Z 08004MPS CAVOK M02/M06 Q1013 R05/CLRD70 NOSIG RMK QFE748/0998
TAF UAOO 230200Z 2303/2312 09005MPS CAVOK 
     TEMPO 2306/2312 12005MPS
       
UARR 230330Z 16003MPS 2300 -SHRA BR BKN002 OVC033CB 04/04 Q1006 R22/290350 TEMPO 1000 BR BKN002 RMK QBB080 QFE751/1002
TAF AMD UARR 230305Z 2303/2312 18005MPS 3000 -SHRA BR BKN005 BKN020CB 
     TEMPO 2303/2308 0500 FG VV002 
     BECMG 2308/2309 25005MPS BKN010 
     TEMPO 2309/2312 BKN007
       
UASK 230330Z 00000MPS 3000 BR BCFG SCT200 M11/M12 Q1030 R12/090060 NOSIG RMK QFE747/0996
TAF UASK 230204Z 2303/2312 VRB02MPS 1100 BR SCT004 
     TEMPO 2303/2305 0200 FZFG VV002 
     BECMG 2305/2306 12005MPS 9999 NSW SCT100
       
UASP 230330Z 10002MPS CAVOK M09/M10 Q1030 R21/0///70 NOSIG RMK QFE761/1014
TAF UASP 230200Z 2303/2312 12005MPS 9999 BKN020 
     TEMPO 2303/2306 VRB01MPS 2100 BR BKN006
       
UASS 230330Z 09005MPS CAVOK M08/M10 Q1030 NOSIG RMK QFE754/1005
TAF UASS 230200Z 2303/2312 12004MPS CAVOK
       
UATE 230330Z 33003MPS CAVOK 04/02 Q1013 R30/0///70 NOSIG RMK QFE758/1011
TAF UATE 222306Z 2300/2324 35005MPS 9999 SCT015 BKN030CB TX10/2309Z TN05/2302Z
       
UATG 230330Z 30004MPS 5000 BR BKN020CB 02/01 Q1010 R32/19//65 NOSIG RMK QFE759/1013
TAF UATG 222302Z 2300/2324 31010MPS 3000 -SHRA BR BKN007 BKN015CB TX06/2311Z TN01/2303Z 
     BECMG 2306/2308 9999 NSW BKN010 BKN020CB
       
UATT 230330Z 11004MPS CAVOK 00/M05 Q1009 R13/0///60 NOSIG RMK QFE737/0983
TAF UATT 222300Z 2300/2324 12005MPS 9999 BKN020 TX04/2311Z TNM02/2323Z 
     TEMPO 2300/2307 13010MPS 3000 BR BKN010 
     TEMPO 2316/2324 3000 BR SCT005 BKN010
       
UAUU 230330Z 15003MPS CAVOK M02/M05 Q1019 R15/CLRD60 NOSIG RMK QFE748/0998
TAF UAUU 230200Z 2303/2312 14005MPS 9999 SCT020 BKN100 
     TEMPO 2306/2312 15009MPS
       
UACC 230330Z 07003MPS CAVOK M10/M12 Q1025 R04/0///70 NOSIG RMK QFE737/0983
TAF UACC 222300Z 2300/2324 09006MPS 9999 SCT020 BKN100 TX01/2309Z TNM10/2301Z 
     TEMPO 2302/2312 12006MPS
       
UATG 230330Z 30004MPS 5000 BR BKN020CB 02/01 Q1010 R32/19//65 NOSIG RMK QFE759/1013
TAF UATG 222302Z 2300/2324 31010MPS 3000 -SHRA BR BKN007 BKN015CB TX06/2311Z TN01/2303Z 
     BECMG 2306/2308 9999 NSW BKN010 BKN020CB
       
UAAH 230330Z 06007MPS CAVOK M03/M12 Q1023 R05/0///60 NOSIG RMK QFE730/0973
TAF UAAH 230242Z 2303/2312 08009MPS CAVOK
       
UAKK 230330Z 09003MPS CAVOK M13/M15 Q1025 R05/850550 NOSIG RMK QFE721/0961
TAF UAKK 222300Z 2300/2324 VRB02MPS 9999 NSC TX01/2309Z TNM12/2323Z 
     TEMPO 2303/2312 14006MPS
       
UAUU 230330Z 15003MPS CAVOK M02/M05 Q1019 R15/CLRD60 NOSIG RMK QFE748/0998
TAF UAUU 230200Z 2303/2312 14005MPS 9999 SCT020 BKN100 
     TEMPO 2306/2312 15009MPS
       
UASS 230330Z 09005MPS CAVOK M08/M10 Q1030 NOSIG RMK QFE754/1005
TAF UASS 230200Z 2303/2312 12004MPS CAVOK
       
UAII 230330Z 15003MPS CAVOK 05/M06 Q1013 R28/0///70 NOSIG RMK QFE723/0964
TAF UAII 222300Z 2300/2324 12005MPS 6000 SCT100 TX20/2309Z TNM00/2301Z 
     TEMPO 2300/2304 16004MPS 3000 FU BR 
     TEMPO 2305/2313 30005MPS 
     TEMPO 2313/2324 16005MPS 3000 FU SCT040 BKN100
       
UARR 230330Z 16003MPS 2300 -SHRA BR BKN002 OVC033CB 04/04 Q1006 R22/290350 TEMPO 1000 BR BKN002 RMK QBB080 QFE751/1002
TAF AMD UARR 230305Z 2303/2312 18005MPS 3000 -SHRA BR BKN005 BKN020CB 
     TEMPO 2303/2308 0500 FG VV002 
     BECMG 2308/2309 25005MPS BKN010 
     TEMPO 2309/2312 BKN007
       
UASK 230330Z 00000MPS 3000 BR BCFG SCT200 M11/M12 Q1030 R12/090060 NOSIG RMK QFE747/0996
TAF UASK 230204Z 2303/2312 VRB02MPS 1100 BR SCT004 
     TEMPO 2303/2305 0200 FZFG VV002 
     BECMG 2305/2306 12005MPS 9999 NSW SCT100
       
UAKD 230330Z 05005MPS 7000 NSC M06/M10 Q1020 R04/0///65 NOSIG RMK QFE732/0976
TAF UAKD 230200Z 2303/2312 07007MPS 9999 SCT020 BKN100 
     TEMPO 2303/2309 11010MPS